Time;durP1;ratioP1;P1;durP2;ratioP2;P2;SDS_P1;SDS_P2;PMS_P1;PMS_P2;Temp;Humidity;BMP_temperature;BMP_pressure;BME280_temperature;BME280_humidity;BME280_pressure;Samples;Min_cycle;Max_cycle;Signal;HPM_P1;HPM_P2
2023/03/24 00:01:07;;;;;;;;;;;;;;;;;;5112434;28;1102;-44
2023/03/24 00:03:35;;;;;;;;;;;;;;;;;;5112381;28;978;-43
2023/03/24 00:06:03;;;;;;;;;;;;;;;;;;5112426;28;1367;-47
2023/03/24 00:08:34;;;;;;;;;;;;;;;;;;5112197;28;1249;-43
2023/03/24 00:11:06;;;;;;;;;;;;;;;;;;5112294;28;1892;-41
2023/03/24 00:13:36;;;;;;;;;;;;;;;;;;5112246;28;1376;-40
2023/03/24 00:16:05;;;;;;;;;;;;;;;;;;5112264;28;1074;-41
2023/03/24 00:18:32;;;;;;;;;;;;;;;;;;5111976;28;1191;-42
2023/03/24 00:21:00;;;;;;;;;;;;;;;;;;5112184;28;1093;-40
2023/03/24 00:23:31;;;;;;;;;;;;;;;;;;5112174;28;1012;-42
2023/03/24 00:26:01;;;;;;;;;;;;;;;;;;5112102;28;1042;-40
2023/03/24 00:28:32;;;;;;;;;;;;;;;;;;5093490;28;1258;-40
2023/03/24 00:31:00;;;;;;;;;;;;;;;;;;5122562;27;1919;-40
2023/03/24 00:33:33;;;;;;;;;;;;;;;;;;5132143;27;967;-41
2023/03/24 00:36:04;;;;;;;;;;;;;;;;;;5132695;27;1100;-40
2023/03/24 00:38:33;;;;;;;;;;;;;;;;;;5132399;27;1177;-40
2023/03/24 00:41:00;;;;;;;;;;;;;;;;;;5117798;27;974;-40
2023/03/24 00:43:28;;;;;;;;;;;;;;;;;;5111701;28;900;-45
2023/03/24 00:46:00;;;;;;;;;;;;;;;;;;5111534;28;1214;-40
2023/03/24 00:48:29;;;;;;;;;;;;;;;;;;5093234;28;1222;-42
2023/03/24 00:50:56;;;;;;;;;;;;;;;;;;5111609;28;1986;-40
2023/03/24 00:53:28;;;;;;;;;;;;;;;;;;5111502;28;1042;-40
2023/03/24 00:55:57;;;;;;;;;;;;;;;;;;5111305;28;1279;-44
2023/03/24 00:58:24;;;;;;;;;;;;;;;;;;5111141;28;1314;-40
2023/03/24 01:00:53;;;;;;;;;;;;;;;;;;5111648;28;1162;-43
2023/03/24 01:03:25;;;;;;;;;;;;;;;;;;5111613;28;1008;-40
2023/03/24 01:05:56;;;;;;;;;;;;;;;;;;5111647;28;1069;-46
2023/03/24 01:08:24;;;;;;;;;;;;;;;;;;5111370;28;1062;-40
2023/03/24 01:10:56;;;;;;;;;;;;;;;;;;5113246;27;1933;-40
2023/03/24 01:13:24;;;;;;;;;;;;;;;;;;5132001;28;1078;-53
2023/03/24 01:15:52;;;;;;;;;;;;;;;;;;5131721;28;1019;-40
2023/03/24 01:18:22;;;;;;;;;;;;;;;;;;5132044;28;1295;-40
2023/03/24 01:20:50;;;;;;;;;;;;;;;;;;5131942;28;1013;-39
2023/03/24 01:23:20;;;;;;;;;;;;;;;;;;5131786;28;1282;-40
2023/03/24 01:25:48;;;;;;;;;;;;;;;;;;5132073;28;1049;-40
2023/03/24 01:28:17;;;;;;;;;;;;;;;;;;5131645;28;1386;-51
2023/03/24 01:30:44;;;;;;;;;;;;;;;;;;5131925;28;1070;-40
2023/03/24 01:33:11;;;;;;;;;;;;;;;;;;5131809;28;1917;-43
2023/03/24 01:35:39;;;;;;;;;;;;;;;;;;5113251;28;928;-40
2023/03/24 01:38:07;;;;;;;;;;;;;;;;;;5131783;28;1054;-46
2023/03/24 01:40:36;;;;;;;;;;;;;;;;;;5113071;28;1407;-41
2023/03/24 01:43:05;;;;;;;;;;;;;;;;;;5131712;28;1112;-44
2023/03/24 01:45:43;;;;;;;;;;;;;;;;;;5131600;28;1396;-43
2023/03/24 01:48:30;;;;;;;;;;;;;;;;;;5113092;28;1338;-40
2023/03/24 01:51:09;;;;;;;;;;;;;;;;;;5112956;28;1972;-45
2023/03/24 01:53:40;;;;;;;;;;;;;;;;;;5113207;28;1266;-40
2023/03/24 01:56:07;;;;;;;;;;;;;;;;;;5123356;28;1332;-42
2023/03/24 01:58:41;;;;;;;;;;;;;;;;;;5109584;28;1457;-42
2023/03/24 02:01:17;;;;;;;;;;;;;;;;;;5092827;28;1455;-40
2023/03/24 02:03:58;;;;;;;;;;;;;;;;;;5111008;28;1059;-40
2023/03/24 02:06:26;;;;;;;;;;;;;;;;;;5110711;28;1258;-39
2023/03/24 02:08:57;;;;;;;;;;;;;;;;;;5096045;28;1408;-39
2023/03/24 02:11:28;;;;;;;;;;;;;;;;;;5096182;28;2387;-40
2023/03/24 02:13:59;;;;;;;;;;;;;;;;;;5096225;28;1361;-46
2023/03/24 02:16:26;;;;;;;;;;;;;;;;;;5140656;27;1322;-45
2023/03/24 02:18:59;;;;;;;;;;;;;;;;;;5133605;27;1380;-40
2023/03/24 02:21:44;;;;;;;;;;;;;;;;;;5133768;27;1249;-48
2023/03/24 02:24:11;;;;;;;;;;;;;;;;;;5133601;27;1233;-50
2023/03/24 02:26:39;;;;;;;;;;;;;;;;;;5133453;27;1582;-40
2023/03/24 02:29:22;;;;;;;;;;;;;;;;;;5134838;27;938;-41
2023/03/24 02:32:17;;;;;;;;;;;;;;;;;;5134928;27;1984;-39
2023/03/24 02:35:02;;;;;;;;;;;;;;;;;;5133312;27;2091;-47
2023/03/24 02:37:41;;;;;;;;;;;;;;;;;;5134835;27;1069;-40
2023/03/24 02:40:18;;;;;;;;;;;;;;;;;;5095684;28;1351;-40
2023/03/24 02:42:52;;;;;;;;;;;;;;;;;;5095675;28;1515;-40
2023/03/24 02:45:22;;;;;;;;;;;;;;;;;;5113949;28;1429;-46
2023/03/24 02:48:03;;;;;;;;;;;;;;;;;;5114077;28;1040;-43
2023/03/24 02:50:34;;;;;;;;;;;;;;;;;;5095549;28;1305;-49
2023/03/24 02:53:07;;;;;;;;;;;;;;;;;;5095333;28;2197;-40
2023/03/24 02:55:50;;;;;;;;;;;;;;;;;;5096931;28;1375;-41
2023/03/24 02:58:21;;;;;;;;;;;;;;;;;;5095550;28;1428;-40
2023/03/24 03:01:01;;;;;;;;;;;;;;;;;;5113698;28;900;-40
2023/03/24 03:04:01;;;;;;;;;;;;;;;;;;5093577;28;1267;-40
2023/03/24 03:06:31;;;;;;;;;;;;;;;;;;5095002;28;1205;-41
2023/03/24 03:09:01;;;;;;;;;;;;;;;;;;5095139;28;1436;-46
2023/03/24 03:11:29;;;;;;;;;;;;;;;;;;5113402;28;1968;-40
2023/03/24 03:14:05;;;;;;;;;;;;;;;;;;5113330;28;1081;-40
2023/03/24 03:16:44;;;;;;;;;;;;;;;;;;5095091;28;1129;-41
2023/03/24 03:19:16;;;;;;;;;;;;;;;;;;5113144;28;1332;-45
2023/03/24 03:21:46;;;;;;;;;;;;;;;;;;5116149;27;968;-41
2023/03/24 03:24:25;;;;;;;;;;;;;;;;;;5133603;27;1204;-44
2023/03/24 03:27:07;;;;;;;;;;;;;;;;;;5132739;27;1512;-41
2023/03/24 03:29:37;;;;;;;;;;;;;;;;;;5133471;27;1168;-42
2023/03/24 03:32:06;;;;;;;;;;;;;;;;;;5132371;27;1901;-40
2023/03/24 03:34:43;;;;;;;;;;;;;;;;;;5133446;27;1144;-46
2023/03/24 03:37:30;;;;;;;;;;;;;;;;;;5133628;27;965;-40
2023/03/24 03:40:00;;;;;;;;;;;;;;;;;;5133088;27;1560;-39
2023/03/24 03:42:29;;;;;;;;;;;;;;;;;;5133463;27;1347;-40
2023/03/24 03:44:57;;;;;;;;;;;;;;;;;;5131906;27;1313;-40
2023/03/24 03:47:24;;;;;;;;;;;;;;;;;;5132177;27;1397;-40
2023/03/24 03:49:52;;;;;;;;;;;;;;;;;;5131816;27;1081;-42
2023/03/24 03:52:20;;;;;;;;;;;;;;;;;;5133070;27;1978;-44
2023/03/24 03:54:48;;;;;;;;;;;;;;;;;;5131745;27;1231;-41
2023/03/24 03:57:17;;;;;;;;;;;;;;;;;;5133145;27;1364;-45
2023/03/24 04:00:07;;;;;;;;;;;;;;;;;;5131584;27;1435;-44
2023/03/24 04:02:57;;;;;;;;;;;;;;;;;;5133175;27;1217;-48
2023/03/24 04:05:34;;;;;;;;;;;;;;;;;;5114579;27;2369;-49
2023/03/24 04:08:17;;;;;;;;;;;;;;;;;;5114161;27;999;-44
2023/03/24 04:11:11;;;;;;;;;;;;;;;;;;5132968;27;928;-45
2023/03/24 04:14:20;;;;;;;;;;;;;;;;;;5124223;27;1328;-42
2023/03/24 04:17:26;;;;;;;;;;;;;;;;;;5069624;28;1233;-41
2023/03/24 04:20:11;;;;;;;;;;;;;;;;;;5069380;28;1082;-44
2023/03/24 04:22:39;;;;;;;;;;;;;;;;;;5093482;27;9727;-42
2023/03/24 04:25:28;;;;;;;;;;;;;;;;;;5095147;27;1992;-40
2023/03/24 04:28:10;;;;;;;;;;;;;;;;;;5133090;27;916;-40
2023/03/24 04:30:41;;;;;;;;;;;;;;;;;;5131743;27;1313;-44
2023/03/24 04:33:16;;;;;;;;;;;;;;;;;;5114143;27;1907;-41
2023/03/24 04:35:51;;;;;;;;;;;;;;;;;;5113973;27;1275;-44
2023/03/24 04:38:27;;;;;;;;;;;;;;;;;;5114101;27;1420;-40
2023/03/24 04:41:09;;;;;;;;;;;;;;;;;;5113657;27;1417;-47
2023/03/24 04:43:38;;;;;;;;;;;;;;;;;;5113922;27;1157;-40
2023/03/24 04:46:08;;;;;;;;;;;;;;;;;;5127311;27;1287;-41
2023/03/24 04:49:02;;;;;;;;;;;;;;;;;;5109245;28;1100;-40
2023/03/24 04:51:32;;;;;;;;;;;;;;;;;;5110285;28;1221;-40
2023/03/24 04:54:03;;;;;;;;;;;;;;;;;;5111783;28;1965;-41
2023/03/24 04:56:40;;;;;;;;;;;;;;;;;;5106675;28;1369;-41
2023/03/24 04:59:31;;;;;;;;;;;;;;;;;;5091318;28;1115;-40
2023/03/24 05:02:00;;;;;;;;;;;;;;;;;;5090109;28;1433;-40
2023/03/24 05:04:40;;;;;;;;;;;;;;;;;;5089741;28;1225;-40
2023/03/24 05:07:22;;;;;;;;;;;;;;;;;;5091415;28;1460;-40
2023/03/24 05:09:54;;;;;;;;;;;;;;;;;;5109990;28;1298;-41
2023/03/24 05:12:22;;;;;;;;;;;;;;;;;;5110032;28;2100;-42
2023/03/24 05:15:09;;;;;;;;;;;;;;;;;;5111158;28;1462;-47
2023/03/24 05:17:37;;;;;;;;;;;;;;;;;;5089781;28;2313;-42
2023/03/24 05:20:11;;;;;;;;;;;;;;;;;;5090890;28;1232;-40
2023/03/24 05:22:41;;;;;;;;;;;;;;;;;;5089858;28;1428;-50
2023/03/24 05:25:09;;;;;;;;;;;;;;;;;;5089358;28;1266;-41
2023/03/24 05:27:37;;;;;;;;;;;;;;;;;;5103337;28;967;-40
2023/03/24 05:30:20;;;;;;;;;;;;;;;;;;5109592;28;1264;-48
2023/03/24 05:32:50;;;;;;;;;;;;;;;;;;5109991;28;1902;-41
2023/03/24 05:35:18;;;;;;;;;;;;;;;;;;5111054;28;1580;-41
2023/03/24 05:37:45;;;;;;;;;;;;;;;;;;5109936;28;1411;-41
2023/03/24 05:40:14;;;;;;;;;;;;;;;;;;5110392;28;1190;-42
2023/03/24 05:42:49;;;;;;;;;;;;;;;;;;5113725;28;1488;-41
2023/03/24 05:45:18;;;;;;;;;;;;;;;;;;5117289;27;1186;-41
2023/03/24 05:47:47;;;;;;;;;;;;;;;;;;5117119;27;1469;-44
2023/03/24 05:50:18;;;;;;;;;;;;;;;;;;5116714;27;1383;-42
2023/03/24 05:52:46;;;;;;;;;;;;;;;;;;5135379;27;1913;-44
2023/03/24 05:55:43;;;;;;;;;;;;;;;;;;5108384;27;1377;-41
2023/03/24 05:58:33;;;;;;;;;;;;;;;;;;5114882;28;1193;-48
2023/03/24 06:01:05;;;;;;;;;;;;;;;;;;5115010;28;1212;-46
2023/03/24 06:03:37;;;;;;;;;;;;;;;;;;5096586;28;1799;-44
2023/03/24 06:06:15;;;;;;;;;;;;;;;;;;5110222;27;2485;-41
2023/03/24 06:08:46;;;;;;;;;;;;;;;;;;5116581;27;1210;-42
2023/03/24 06:11:15;;;;;;;;;;;;;;;;;;5116693;27;1402;-46
2023/03/24 06:13:51;;;;;;;;;;;;;;;;;;5116541;27;1977;-46
2023/03/24 06:16:22;;;;;;;;;;;;;;;;;;5116542;27;1410;-42
2023/03/24 06:18:56;;;;;;;;;;;;;;;;;;5116727;27;1569;-54
2023/03/24 06:21:43;;;;;;;;;;;;;;;;;;5135169;27;1186;-41
2023/03/24 06:24:13;;;;;;;;;;;;;;;;;;5116704;27;1585;-45
2023/03/24 06:26:43;;;;;;;;;;;;;;;;;;5116364;27;1439;-49
2023/03/24 06:29:16;;;;;;;;;;;;;;;;;;5116491;27;1389;-42
2023/03/24 06:31:47;;;;;;;;;;;;;;;;;;5116066;27;1447;-48
2023/03/24 06:34:15;;;;;;;;;;;;;;;;;;5116386;27;1915;-46
2023/03/24 06:36:50;;;;;;;;;;;;;;;;;;5116006;27;1299;-47
2023/03/24 06:39:18;;;;;;;;;;;;;;;;;;5116208;27;1416;-43
2023/03/24 06:41:46;;;;;;;;;;;;;;;;;;5116075;27;1444;-50
2023/03/24 06:44:13;;;;;;;;;;;;;;;;;;5134306;27;1608;-48
2023/03/24 06:46:41;;;;;;;;;;;;;;;;;;5114451;27;1291;-44
2023/03/24 06:49:09;;;;;;;;;;;;;;;;;;5115835;27;1405;-40
2023/03/24 06:51:36;;;;;;;;;;;;;;;;;;5115792;27;1417;-45
2023/03/24 06:54:04;;;;;;;;;;;;;;;;;;5115904;27;1908;-45
2023/03/24 06:56:31;;;;;;;;;;;;;;;;;;5103224;28;2347;-42
2023/03/24 06:59:01;;;;;;;;;;;;;;;;;;5095515;28;1345;-42
2023/03/24 07:01:33;;;;;;;;;;;;;;;;;;5113725;28;997;-51
2023/03/24 07:04:16;;;;;;;;;;;;;;;;;;5095473;28;1598;-51
2023/03/24 07:06:44;;;;;;;;;;;;;;;;;;5113411;28;1165;-47
2023/03/24 07:09:27;;;;;;;;;;;;;;;;;;5095124;28;1150;-48
2023/03/24 07:11:54;;;;;;;;;;;;;;;;;;5112775;28;1008;-45
2023/03/24 07:14:24;;;;;;;;;;;;;;;;;;5112238;28;1915;-49
2023/03/24 07:16:53;;;;;;;;;;;;;;;;;;5095018;28;1270;-41
2023/03/24 07:19:34;;;;;;;;;;;;;;;;;;5111925;28;1222;-42
2023/03/24 07:22:27;;;;;;;;;;;;;;;;;;5112552;28;1643;-41
2023/03/24 07:25:13;;;;;;;;;;;;;;;;;;5113190;28;987;-43
2023/03/24 07:27:47;;;;;;;;;;;;;;;;;;5111604;28;1250;-40
2023/03/24 07:30:16;;;;;;;;;;;;;;;;;;5111482;28;1202;-41
2023/03/24 07:32:48;;;;;;;;;;;;;;;;;;5111647;28;1908;-41
2023/03/24 07:35:16;;;;;;;;;;;;;;;;;;5111560;28;1448;-45
2023/03/24 07:37:44;;;;;;;;;;;;;;;;;;5111722;28;2110;-41
2023/03/24 07:40:13;;;;;;;;;;;;;;;;;;5111770;28;1249;-47
2023/03/24 07:42:43;;;;;;;;;;;;;;;;;;5094537;28;2249;-43
2023/03/24 07:45:27;;;;;;;;;;;;;;;;;;5111304;28;1501;-40
2023/03/24 07:48:00;;;;;;;;;;;;;;;;;;5111456;28;2459;-41
2023/03/24 07:50:31;;;;;;;;;;;;;;;;;;5094297;28;1242;-41
2023/03/24 07:53:03;;;;;;;;;;;;;;;;;;5094133;28;1969;-41
2023/03/24 07:55:30;;;;;;;;;;;;;;;;;;5112708;28;1348;-42
2023/03/24 07:58:03;;;;;;;;;;;;;;;;;;5094491;28;1488;-41
2023/03/24 08:00:32;;;;;;;;;;;;;;;;;;5094516;28;2378;-41
2023/03/24 08:03:13;;;;;;;;;;;;;;;;;;5094069;28;1274;-47
2023/03/24 08:06:03;;;;;;;;;;;;;;;;;;5093897;28;1647;-41
2023/03/24 08:08:35;;;;;;;;;;;;;;;;;;5112459;28;1357;-40
2023/03/24 08:11:03;;;;;;;;;;;;;;;;;;5112050;28;1040;-49
2023/03/24 08:13:31;;;;;;;;;;;;;;;;;;5112157;28;1905;-41
2023/03/24 08:15:58;;;;;;;;;;;;;;;;;;5111920;28;1064;-48
2023/03/24 08:18:25;;;;;;;;;;;;;;;;;;5112032;28;1228;-41
2023/03/24 08:20:56;;;;;;;;;;;;;;;;;;5112452;28;939;-45
2023/03/24 08:23:24;;;;;;;;;;;;;;;;;;5112119;28;1043;-42
2023/03/24 08:25:51;;;;;;;;;;;;;;;;;;5112144;28;919;-40
2023/03/24 08:28:18;;;;;;;;;;;;;;;;;;5111745;28;1067;-44
2023/03/24 08:30:46;;;;;;;;;;;;;;;;;;5111923;28;981;-41
2023/03/24 08:33:15;;;;;;;;;;;;;;;;;;5111954;28;1899;-42
2023/03/24 08:35:46;;;;;;;;;;;;;;;;;;5111915;28;1332;-41
2023/03/24 08:38:15;;;;;;;;;;;;;;;;;;5112096;28;1351;-41
2023/03/24 08:40:44;;;;;;;;;;;;;;;;;;5111974;28;1147;-41
2023/03/24 08:43:13;;;;;;;;;;;;;;;;;;5112095;28;1371;-43
2023/03/24 08:45:40;;;;;;;;;;;;;;;;;;5111712;28;1125;-56
2023/03/24 08:48:08;;;;;;;;;;;;;;;;;;5111928;28;1001;-41
2023/03/24 08:50:37;;;;;;;;;;;;;;;;;;5111360;28;978;-42
2023/03/24 08:53:05;;;;;;;;;;;;;;;;;;5111402;28;1909;-42
2023/03/24 08:55:32;;;;;;;;;;;;;;;;;;5114724;27;1378;-44
2023/03/24 08:58:00;;;;;;;;;;;;;;;;;;5132015;27;1024;-41
2023/03/24 09:00:27;;;;;;;;;;;;;;;;;;5132239;27;1659;-41
2023/03/24 09:02:55;;;;;;;;;;;;;;;;;;5132188;27;1257;-42
2023/03/24 09:05:24;;;;;;;;;;;;;;;;;;5131960;28;1018;-41
2023/03/24 09:08:07;;;;;;;;;;;;;;;;;;5132073;28;1114;-41
2023/03/24 09:10:34;;;;;;;;;;;;;;;;;;5131928;28;1212;-41
2023/03/24 09:13:03;;;;;;;;;;;;;;;;;;5131846;28;1902;-42
2023/03/24 09:15:34;;;;;;;;;;;;;;;;;;5133132;27;1284;-41
2023/03/24 09:18:02;;;;;;;;;;;;;;;;;;5136349;27;1061;-48
2023/03/24 09:20:29;;;;;;;;;;;;;;;;;;5135972;27;1681;-42
2023/03/24 09:22:56;;;;;;;;;;;;;;;;;;5136163;27;1135;-42
2023/03/24 09:25:23;;;;;;;;;;;;;;;;;;5136259;27;990;-44
2023/03/24 09:27:51;;;;;;;;;;;;;;;;;;5136003;27;1035;-41
2023/03/24 09:30:18;;;;;;;;;;;;;;;;;;5135915;27;1043;-41
2023/03/24 09:32:45;;;;;;;;;;;;;;;;;;5136210;27;1021;-41
2023/03/24 09:35:13;;;;;;;;;;;;;;;;;;5135444;27;1913;-42
2023/03/24 09:37:42;;;;;;;;;;;;;;;;;;5135911;27;1233;-48
2023/03/24 09:40:16;;;;;;;;;;;;;;;;;;5135763;27;1200;-41
2023/03/24 09:42:46;;;;;;;;;;;;;;;;;;5135906;27;1266;-42
2023/03/24 09:45:20;;;;;;;;;;;;;;;;;;5135487;27;1191;-41
2023/03/24 09:47:50;;;;;;;;;;;;;;;;;;5135758;27;987;-41
2023/03/24 09:50:26;;;;;;;;;;;;;;;;;;5117637;27;1042;-41
2023/03/24 09:52:55;;;;;;;;;;;;;;;;;;5135550;27;1116;-41
2023/03/24 09:55:27;;;;;;;;;;;;;;;;;;5133363;27;1906;-45
2023/03/24 09:58:00;;;;;;;;;;;;;;;;;;5114770;28;1139;-41
2023/03/24 10:00:29;;;;;;;;;;;;;;;;;;5114742;28;1313;-41
2023/03/24 10:02:58;;;;;;;;;;;;;;;;;;5115119;28;1009;-54
2023/03/24 10:05:38;;;;;;;;;;;;;;;;;;5114858;28;1240;-43
2023/03/24 10:08:11;;;;;;;;;;;;;;;;;;5114873;28;911;-39
2023/03/24 10:11:07;;;;;;;;;;;;;;;;;;5114416;28;1232;-41
2023/03/24 10:13:37;;;;;;;;;;;;;;;;;;5101664;28;1909;-59
2023/03/24 10:16:10;;;;;;;;;;;;;;;;;;5114480;28;1050;-41
2023/03/24 10:18:57;;;;;;;;;;;;;;;;;;5114506;28;909;-51
2023/03/24 10:21:26;;;;;;;;;;;;;;;;;;5114236;28;1928;-42
2023/03/24 10:24:00;;;;;;;;;;;;;;;;;;5114344;28;1086;-42
2023/03/24 10:26:32;;;;;;;;;;;;;;;;;;5113972;28;1097;-41
2023/03/24 10:29:15;;;;;;;;;;;;;;;;;;5113955;28;1083;-42
2023/03/24 10:31:46;;;;;;;;;;;;;;;;;;5114241;28;1055;-56
2023/03/24 10:34:13;;;;;;;;;;;;;;;;;;5114111;28;1906;-42
2023/03/24 10:36:40;;;;;;;;;;;;;;;;;;5113959;28;1530;-47
2023/03/24 10:39:13;;;;;;;;;;;;;;;;;;5114139;28;1358;-43
2023/03/24 10:41:45;;;;;;;;;;;;;;;;;;5113771;28;1080;-40
2023/03/24 10:44:13;;;;;;;;;;;;;;;;;;5114170;28;896;-41
2023/03/24 10:46:44;;;;;;;;;;;;;;;;;;5113870;28;1190;-41
2023/03/24 10:49:13;;;;;;;;;;;;;;;;;;5114102;28;1039;-41
2023/03/24 10:51:48;;;;;;;;;;;;;;;;;;5113843;28;1005;-41
2023/03/24 10:54:15;;;;;;;;;;;;;;;;;;5113750;28;1975;-41
2023/03/24 10:56:44;;;;;;;;;;;;;;;;;;5113558;28;1584;-41
2023/03/24 10:59:20;;;;;;;;;;;;;;;;;;5113688;28;1030;-42
2023/03/24 11:01:47;;;;;;;;;;;;;;;;;;5113633;28;1143;-43
2023/03/24 11:04:17;;;;;;;;;;;;;;;;;;5113934;28;1311;-41
2023/03/24 11:06:53;;;;;;;;;;;;;;;;;;5113443;28;1015;-44
2023/03/24 11:09:21;;;;;;;;;;;;;;;;;;5113765;28;1071;-56
2023/03/24 11:11:51;;;;;;;;;;;;;;;;;;5113558;28;940;-51
2023/03/24 11:14:18;;;;;;;;;;;;;;;;;;5113210;28;1900;-41
2023/03/24 11:16:46;;;;;;;;;;;;;;;;;;5113341;28;1121;-42
2023/03/24 11:19:18;;;;;;;;;;;;;;;;;;5112898;28;1744;-41
2023/03/24 11:21:48;;;;;;;;;;;;;;;;;;5113308;28;991;-40
2023/03/24 11:24:16;;;;;;;;;;;;;;;;;;5113404;28;930;-41
2023/03/24 11:26:59;;;;;;;;;;;;;;;;;;5113335;28;1026;-40
2023/03/24 11:29:29;;;;;;;;;;;;;;;;;;5094899;28;1807;-41
2023/03/24 11:31:57;;;;;;;;;;;;;;;;;;5113235;28;1086;-52
2023/03/24 11:34:33;;;;;;;;;;;;;;;;;;5113100;28;1974;-46
2023/03/24 11:37:02;;;;;;;;;;;;;;;;;;5112704;28;955;-44
2023/03/24 11:39:36;;;;;;;;;;;;;;;;;;5112712;28;1086;-49
2023/03/24 11:42:03;;;;;;;;;;;;;;;;;;5112889;28;1117;-50
2023/03/24 11:44:50;;;;;;;;;;;;;;;;;;5112902;28;999;-41
2023/03/24 11:47:18;;;;;;;;;;;;;;;;;;5111863;28;1751;-47
2023/03/24 11:49:51;;;;;;;;;;;;;;;;;;5112783;28;1473;-43
2023/03/24 11:52:24;;;;;;;;;;;;;;;;;;5112823;28;1015;-43
2023/03/24 11:54:51;;;;;;;;;;;;;;;;;;5112464;28;1915;-46
2023/03/24 11:57:31;;;;;;;;;;;;;;;;;;5112515;28;1326;-42
2023/03/24 12:00:06;;;;;;;;;;;;;;;;;;5112423;28;1108;-41
2023/03/24 12:02:41;;;;;;;;;;;;;;;;;;5112436;28;1061;-41
2023/03/24 12:05:08;;;;;;;;;;;;;;;;;;5112148;28;1302;-58
2023/03/24 12:07:43;;;;;;;;;;;;;;;;;;5112645;28;1368;-41
2023/03/24 12:10:17;;;;;;;;;;;;;;;;;;5112117;28;1071;-41
2023/03/24 12:12:56;;;;;;;;;;;;;;;;;;5112403;28;1284;-55
2023/03/24 12:15:35;;;;;;;;;;;;;;;;;;5112001;28;1981;-43
2023/03/24 12:18:02;;;;;;;;;;;;;;;;;;5112282;28;1266;-41
2023/03/24 12:20:32;;;;;;;;;;;;;;;;;;5112127;28;1020;-43
2023/03/24 12:23:07;;;;;;;;;;;;;;;;;;5112335;28;1110;-41
2023/03/24 12:26:03;;;;;;;;;;;;;;;;;;5111920;28;1175;-41
2023/03/24 12:28:39;;;;;;;;;;;;;;;;;;5112024;28;1359;-41
2023/03/24 12:31:14;;;;;;;;;;;;;;;;;;5111808;28;1106;-41
2023/03/24 12:33:59;;;;;;;;;;;;;;;;;;5111754;28;1315;-41
2023/03/24 12:36:48;;;;;;;;;;;;;;;;;;5111991;28;1048;-40
2023/03/24 12:39:27;;;;;;;;;;;;;;;;;;5111607;28;1077;-41
2023/03/24 12:42:09;;;;;;;;;;;;;;;;;;5111720;28;1151;-41
2023/03/24 12:44:43;;;;;;;;;;;;;;;;;;5111715;28;1101;-41
2023/03/24 12:47:28;;;;;;;;;;;;;;;;;;5111633;28;1044;-41
2023/03/24 12:50:04;;;;;;;;;;;;;;;;;;5092821;28;1540;-42
2023/03/24 12:52:50;;;;;;;;;;;;;;;;;;5111625;28;1026;-41
2023/03/24 12:55:46;;;;;;;;;;;;;;;;;;5114674;27;1919;-41
2023/03/24 12:58:37;;;;;;;;;;;;;;;;;;5132026;27;1088;-41
2023/03/24 13:01:11;;;;;;;;;;;;;;;;;;5124176;27;1716;-44
2023/03/24 13:03:40;;;;;;;;;;;;;;;;;;5131913;27;943;-43
2023/03/24 13:06:16;;;;;;;;;;;;;;;;;;5132014;28;962;-41
2023/03/24 13:08:48;;;;;;;;;;;;;;;;;;5132088;28;1094;-41
2023/03/24 13:11:18;;;;;;;;;;;;;;;;;;5132053;28;981;-41
2023/03/24 13:13:59;;;;;;;;;;;;;;;;;;5131737;28;1970;-41
2023/03/24 13:16:28;;;;;;;;;;;;;;;;;;5131139;28;1194;-41
2023/03/24 13:18:58;;;;;;;;;;;;;;;;;;5125716;28;1575;-42
2023/03/24 13:21:27;;;;;;;;;;;;;;;;;;5110456;28;1065;-48
2023/03/24 13:23:56;;;;;;;;;;;;;;;;;;5109915;28;1372;-47
2023/03/24 13:26:43;;;;;;;;;;;;;;;;;;5111359;28;899;-48
2023/03/24 13:29:13;;;;;;;;;;;;;;;;;;5107445;28;1616;-42
2023/03/24 13:31:50;;;;;;;;;;;;;;;;;;5110960;28;1075;-53
2023/03/24 13:34:23;;;;;;;;;;;;;;;;;;5111173;28;1906;-49
2023/03/24 13:36:56;;;;;;;;;;;;;;;;;;5111116;28;912;-41
2023/03/24 13:39:24;;;;;;;;;;;;;;;;;;5117522;27;1309;-43
2023/03/24 13:41:53;;;;;;;;;;;;;;;;;;5131893;28;995;-42
2023/03/24 13:44:22;;;;;;;;;;;;;;;;;;5131812;28;1026;-41
2023/03/24 13:47:02;;;;;;;;;;;;;;;;;;5126590;28;1301;-59
2023/03/24 13:49:30;;;;;;;;;;;;;;;;;;5111358;28;1022;-41
2023/03/24 13:52:01;;;;;;;;;;;;;;;;;;5111067;28;1158;-56
2023/03/24 13:54:29;;;;;;;;;;;;;;;;;;5110942;28;1909;-42
2023/03/24 13:57:02;;;;;;;;;;;;;;;;;;5111081;28;1278;-59
2023/03/24 13:59:29;;;;;;;;;;;;;;;;;;5110792;28;1304;-50
2023/03/24 14:02:15;;;;;;;;;;;;;;;;;;5112611;28;1075;-42
2023/03/24 14:04:46;;;;;;;;;;;;;;;;;;5113439;28;2527;-59
2023/03/24 14:07:41;;;;;;;;;;;;;;;;;;5114759;28;1138;-43
2023/03/24 14:10:19;;;;;;;;;;;;;;;;;;5114642;28;1071;-41
2023/03/24 14:12:58;;;;;;;;;;;;;;;;;;5114439;28;1106;-58
2023/03/24 14:15:30;;;;;;;;;;;;;;;;;;5114480;28;1914;-40
2023/03/24 14:18:17;;;;;;;;;;;;;;;;;;5113418;28;1031;-43
2023/03/24 14:20:56;;;;;;;;;;;;;;;;;;5123038;27;1024;-40
2023/03/24 14:23:28;;;;;;;;;;;;;;;;;;5134714;27;1230;-42
2023/03/24 14:25:58;;;;;;;;;;;;;;;;;;5134761;27;1305;-42
2023/03/24 14:28:33;;;;;;;;;;;;;;;;;;5118303;27;1338;-41
2023/03/24 14:31:01;;;;;;;;;;;;;;;;;;5114016;28;1105;-41
2023/03/24 14:33:29;;;;;;;;;;;;;;;;;;5120789;27;1171;-42
2023/03/24 14:36:00;;;;;;;;;;;;;;;;;;5121619;27;1935;-44
2023/03/24 14:38:27;;;;;;;;;;;;;;;;;;5113975;28;1127;-44
2023/03/24 14:41:04;;;;;;;;;;;;;;;;;;5114197;28;1032;-42
2023/03/24 14:43:40;;;;;;;;;;;;;;;;;;5113794;28;1618;-41
2023/03/24 14:46:20;;;;;;;;;;;;;;;;;;5113961;28;1352;-42
2023/03/24 14:49:08;;;;;;;;;;;;;;;;;;5113855;28;1136;-42
2023/03/24 14:51:40;;;;;;;;;;;;;;;;;;5114066;28;1164;-42
2023/03/24 14:54:15;;;;;;;;;;;;;;;;;;5114108;28;959;-43
2023/03/24 14:56:45;;;;;;;;;;;;;;;;;;5113470;28;1278;-42
2023/03/24 14:59:28;;;;;;;;;;;;;;;;;;5113286;28;980;-41
2023/03/24 15:02:18;;;;;;;;;;;;;;;;;;5113516;28;1266;-42
2023/03/24 15:05:04;;;;;;;;;;;;;;;;;;5110710;27;1233;-43
2023/03/24 15:07:31;;;;;;;;;;;;;;;;;;5134340;27;1020;-42
2023/03/24 15:09:58;;;;;;;;;;;;;;;;;;5133241;27;1099;-41
2023/03/24 15:12:26;;;;;;;;;;;;;;;;;;5133152;27;1115;-42
2023/03/24 15:14:53;;;;;;;;;;;;;;;;;;5112527;28;1975;-60
2023/03/24 15:17:21;;;;;;;;;;;;;;;;;;5113336;28;1051;-42
2023/03/24 15:19:52;;;;;;;;;;;;;;;;;;5112635;28;1376;-42
2023/03/24 15:22:20;;;;;;;;;;;;;;;;;;5094712;28;2296;-41
2023/03/24 15:24:48;;;;;;;;;;;;;;;;;;5112559;28;1346;-41
2023/03/24 15:27:15;;;;;;;;;;;;;;;;;;5112817;28;1007;-41
2023/03/24 15:29:43;;;;;;;;;;;;;;;;;;5112749;28;1236;-42
2023/03/24 15:32:20;;;;;;;;;;;;;;;;;;5112832;28;1288;-44
2023/03/24 15:34:49;;;;;;;;;;;;;;;;;;5112872;28;1914;-42
2023/03/24 15:37:23;;;;;;;;;;;;;;;;;;5113159;28;1142;-47
2023/03/24 15:39:54;;;;;;;;;;;;;;;;;;5112831;28;1048;-42
2023/03/24 15:42:31;;;;;;;;;;;;;;;;;;5113035;28;1172;-51
2023/03/24 15:45:07;;;;;;;;;;;;;;;;;;5113086;28;1155;-50
2023/03/24 15:47:36;;;;;;;;;;;;;;;;;;5112907;28;1148;-45
2023/03/24 15:50:04;;;;;;;;;;;;;;;;;;5094545;28;1335;-42
2023/03/24 15:52:36;;;;;;;;;;;;;;;;;;5112798;28;1078;-49
2023/03/24 15:55:18;;;;;;;;;;;;;;;;;;5121209;27;1974;-42
2023/03/24 15:57:46;;;;;;;;;;;;;;;;;;5112634;28;1399;-46
2023/03/24 16:00:15;;;;;;;;;;;;;;;;;;5112515;28;1032;-43
2023/03/24 16:02:47;;;;;;;;;;;;;;;;;;5112674;28;1061;-40
2023/03/24 16:05:25;;;;;;;;;;;;;;;;;;5112390;28;1007;-41
2023/03/24 16:07:58;;;;;;;;;;;;;;;;;;5112469;28;1396;-43
2023/03/24 16:10:31;;;;;;;;;;;;;;;;;;5112578;28;1590;-41
2023/03/24 16:13:05;;;;;;;;;;;;;;;;;;5111946;28;1354;-51
2023/03/24 16:15:33;;;;;;;;;;;;;;;;;;5112255;28;1976;-41
2023/03/24 16:18:00;;;;;;;;;;;;;;;;;;5112451;28;1258;-51
2023/03/24 16:20:27;;;;;;;;;;;;;;;;;;5112085;28;1324;-52
2023/03/24 16:22:55;;;;;;;;;;;;;;;;;;5111440;28;1104;-52
2023/03/24 16:25:23;;;;;;;;;;;;;;;;;;5111200;28;1091;-40
2023/03/24 16:27:50;;;;;;;;;;;;;;;;;;5111939;28;1039;-41
2023/03/24 16:30:20;;;;;;;;;;;;;;;;;;5111954;28;1032;-41
2023/03/24 16:32:47;;;;;;;;;;;;;;;;;;5111682;28;1164;-43
2023/03/24 16:35:15;;;;;;;;;;;;;;;;;;5112266;28;1991;-48
2023/03/24 16:37:42;;;;;;;;;;;;;;;;;;5111954;28;1032;-43
2023/03/24 16:40:18;;;;;;;;;;;;;;;;;;5111603;28;1096;-46
2023/03/24 16:42:46;;;;;;;;;;;;;;;;;;5111936;28;993;-42
2023/03/24 16:45:13;;;;;;;;;;;;;;;;;;5111956;28;1384;-51
2023/03/24 16:47:40;;;;;;;;;;;;;;;;;;5111714;28;1001;-41
2023/03/24 16:50:21;;;;;;;;;;;;;;;;;;5111513;28;1447;-41
2023/03/24 16:52:48;;;;;;;;;;;;;;;;;;5093257;28;1460;-52
2023/03/24 16:55:16;;;;;;;;;;;;;;;;;;5111792;28;1902;-51
2023/03/24 16:57:43;;;;;;;;;;;;;;;;;;5111791;28;1003;-44
2023/03/24 17:00:10;;;;;;;;;;;;;;;;;;5111663;28;1179;-47
2023/03/24 17:02:37;;;;;;;;;;;;;;;;;;5111613;28;1144;-42
2023/03/24 17:05:27;;;;;;;;;;;;;;;;;;5111332;28;1538;-41
2023/03/24 17:07:54;;;;;;;;;;;;;;;;;;5111303;28;1239;-42
2023/03/24 17:10:23;;;;;;;;;;;;;;;;;;5111428;28;1006;-47
2023/03/24 17:12:52;;;;;;;;;;;;;;;;;;5111637;28;1256;-52
2023/03/24 17:15:20;;;;;;;;;;;;;;;;;;5111516;28;1979;-53
2023/03/24 17:17:48;;;;;;;;;;;;;;;;;;5111439;28;1096;-41
2023/03/24 17:20:15;;;;;;;;;;;;;;;;;;5111756;28;1174;-53
2023/03/24 17:22:43;;;;;;;;;;;;;;;;;;5111376;28;987;-51
2023/03/24 17:25:12;;;;;;;;;;;;;;;;;;5111327;28;1142;-53
2023/03/24 17:27:39;;;;;;;;;;;;;;;;;;5111317;28;1088;-50
2023/03/24 17:30:07;;;;;;;;;;;;;;;;;;5116675;27;1351;-43
2023/03/24 17:32:36;;;;;;;;;;;;;;;;;;5131655;28;1228;-41
2023/03/24 17:35:14;;;;;;;;;;;;;;;;;;5131528;28;1973;-54
2023/03/24 17:37:42;;;;;;;;;;;;;;;;;;5133098;27;1341;-46
2023/03/24 17:40:10;;;;;;;;;;;;;;;;;;5135920;27;1019;-39
2023/03/24 17:42:39;;;;;;;;;;;;;;;;;;5135430;27;1036;-54
2023/03/24 17:45:08;;;;;;;;;;;;;;;;;;5135532;27;1076;-47